createdAt,value
2022-10-06T00:01:09.981Z,10.39
2022-10-06T00:03:38.545Z,10.36
2022-10-06T00:06:07.149Z,10.34
2022-10-06T00:08:38.327Z,10.30
2022-10-06T00:11:07.329Z,10.25
2022-10-06T00:13:35.981Z,10.19
2022-10-06T00:16:10.010Z,10.16
2022-10-06T00:18:37.806Z,10.13
2022-10-06T00:21:05.332Z,10.11
2022-10-06T00:23:32.839Z,10.10
2022-10-06T00:25:59.970Z,10.08
2022-10-06T00:28:27.949Z,10.04
2022-10-06T00:30:55.536Z,10.04
2022-10-06T00:33:23.069Z,10.04
2022-10-06T00:35:58.513Z,10.03
2022-10-06T00:38:26.226Z,10.03
2022-10-06T00:40:53.562Z,9.99
2022-10-06T00:43:51.350Z,9.94
2022-10-06T00:46:36.629Z,9.87
2022-10-06T00:49:09.705Z,9.88
2022-10-06T00:51:44.364Z,9.85
2022-10-06T00:54:12.528Z,9.79
2022-10-06T00:56:41.364Z,9.77
2022-10-06T00:59:16.698Z,9.77
2022-10-06T01:02:15.959Z,9.71
2022-10-06T01:04:49.897Z,9.67
2022-10-06T01:07:22.685Z,9.70
2022-10-06T01:09:50.623Z,9.68
2022-10-06T01:12:18.895Z,9.64
2022-10-06T01:14:46.700Z,9.66
2022-10-06T01:17:26.401Z,9.63
2022-10-06T01:20:13.659Z,9.57
2022-10-06T01:22:46.567Z,9.55
2022-10-06T01:25:17.326Z,9.53
2022-10-06T01:27:49.185Z,9.53
2022-10-06T01:30:23.343Z,9.53
2022-10-06T01:32:50.569Z,9.49
2022-10-06T01:35:17.913Z,9.47
2022-10-06T01:37:45.279Z,9.41
2022-10-06T01:40:12.524Z,9.41
2022-10-06T01:42:39.767Z,9.37
2022-10-06T01:45:07.954Z,9.32
2022-10-06T01:47:35.488Z,9.31
2022-10-06T01:50:02.817Z,9.29
2022-10-06T01:52:30.064Z,9.27
2022-10-06T01:54:57.249Z,9.26
2022-10-06T01:57:24.642Z,9.22
2022-10-06T01:59:54.784Z,9.20
2022-10-06T02:02:22.484Z,9.17
2022-10-06T02:04:49.608Z,9.15
2022-10-06T02:07:16.875Z,9.11
2022-10-06T02:09:44.028Z,9.07
2022-10-06T02:12:11.304Z,9.05
2022-10-06T02:14:38.408Z,9.05
2022-10-06T02:17:05.623Z,9.01
2022-10-06T02:19:32.814Z,9.01
2022-10-06T02:22:00.050Z,8.99
2022-10-06T02:24:27.182Z,8.98
2022-10-06T02:26:54.655Z,8.99
2022-10-06T02:29:22.099Z,8.95
2022-10-06T02:31:49.598Z,8.92
2022-10-06T02:34:16.759Z,8.89
2022-10-06T02:36:44.040Z,8.88
2022-10-06T02:39:11.205Z,8.85
2022-10-06T02:41:38.491Z,8.81
2022-10-06T02:44:05.748Z,8.79
2022-10-06T02:46:32.959Z,8.77
2022-10-06T02:49:00.157Z,8.74
2022-10-06T02:51:27.359Z,8.74
2022-10-06T02:53:54.525Z,8.71
2022-10-06T02:56:24.869Z,8.68
2022-10-06T02:58:54.107Z,8.62
2022-10-06T03:01:27.489Z,8.63
2022-10-06T03:03:55.394Z,8.59
2022-10-06T03:06:29.815Z,8.61
2022-10-06T03:09:03.455Z,8.63
2022-10-06T03:11:33.961Z,8.65
2022-10-06T03:14:01.217Z,8.65
2022-10-06T03:16:35.696Z,8.66
2022-10-06T03:19:03.404Z,8.63
2022-10-06T03:21:35.628Z,8.63
2022-10-06T03:24:03.426Z,8.61
2022-10-06T03:26:38.221Z,8.57
2022-10-06T03:29:10.618Z,8.56
2022-10-06T03:31:40.168Z,8.51
2022-10-06T03:34:07.885Z,8.52
2022-10-06T03:36:36.446Z,8.49
2022-10-06T03:39:06.258Z,8.45
2022-10-06T03:41:36.815Z,8.43
2022-10-06T03:44:04.842Z,8.42
2022-10-06T03:46:35.819Z,8.42
2022-10-06T03:49:03.961Z,8.43
2022-10-06T03:51:37.218Z,8.41
2022-10-06T03:54:04.961Z,8.40
2022-10-06T03:56:36.300Z,8.39
2022-10-06T03:59:11.261Z,8.37
2022-10-06T04:01:45.010Z,8.33
2022-10-06T04:04:13.311Z,8.34
2022-10-06T04:06:43.849Z,8.36
2022-10-06T04:09:15.694Z,8.35
2022-10-06T04:11:44.987Z,8.31
2022-10-06T04:14:15.543Z,8.30
2022-10-06T04:16:47.338Z,8.30
2022-10-06T04:19:16.772Z,8.28
2022-10-06T04:21:46.860Z,8.28
2022-10-06T04:24:15.125Z,8.25
2022-10-06T04:26:45.432Z,8.23
2022-10-06T04:29:13.884Z,8.21
2022-10-06T04:31:42.356Z,8.22
2022-10-06T04:34:12.037Z,8.20
2022-10-06T04:36:42.557Z,8.19
2022-10-06T04:39:11.870Z,8.18
2022-10-06T04:41:42.309Z,8.17
2022-10-06T04:44:09.539Z,8.15
2022-10-06T04:46:43.208Z,8.16
2022-10-06T04:49:17.897Z,8.13
2022-10-06T04:51:48.024Z,8.10
2022-10-06T04:54:15.344Z,8.10
2022-10-06T04:56:42.606Z,8.10
2022-10-06T04:59:09.799Z,8.16
2022-10-06T05:01:37.952Z,8.18
2022-10-06T05:04:06.769Z,8.18
2022-10-06T05:06:41.610Z,8.11
2022-10-06T05:09:14.765Z,8.10
2022-10-06T05:11:42.234Z,8.10
2022-10-06T05:14:09.843Z,8.08
2022-10-06T05:16:37.127Z,8.05
2022-10-06T05:19:04.424Z,8.04
2022-10-06T05:21:32.897Z,8.04
2022-10-06T05:24:00.992Z,8.04
2022-10-06T05:26:33.260Z,8.00
2022-10-06T05:29:01.183Z,7.98
2022-10-06T05:31:31.287Z,7.95
2022-10-06T05:33:59.831Z,7.92
2022-10-06T05:36:32.379Z,7.90
2022-10-06T05:39:00.068Z,7.86
2022-10-06T05:41:33.487Z,7.88
2022-10-06T05:44:01.633Z,7.86
2022-10-06T05:46:32.026Z,7.87
2022-10-06T05:49:05.343Z,7.86
2022-10-06T05:51:35.554Z,7.87
2022-10-06T05:54:03.630Z,7.85
2022-10-06T05:56:34.651Z,7.84
2022-10-06T05:59:02.243Z,7.84
2022-10-06T06:01:47.500Z,7.88
2022-10-06T06:04:14.859Z,7.90
2022-10-06T06:06:45.709Z,7.91
2022-10-06T06:09:19.249Z,7.89
2022-10-06T06:11:49.810Z,7.94
2022-10-06T06:14:22.119Z,7.97
2022-10-06T06:16:49.486Z,8.00
2022-10-06T06:19:16.694Z,7.98
2022-10-06T06:21:43.983Z,8.04
2022-10-06T06:24:11.122Z,8.04
2022-10-06T06:26:38.814Z,8.08
2022-10-06T06:29:06.567Z,8.12
2022-10-06T06:31:39.848Z,8.20
2022-10-06T06:34:07.545Z,8.26
2022-10-06T06:36:40.736Z,8.33
2022-10-06T06:39:14.667Z,8.43
2022-10-06T06:41:47.236Z,8.48
2022-10-06T06:44:15.353Z,8.53
2022-10-06T06:46:44.844Z,8.61
2022-10-06T06:49:12.341Z,8.66
2022-10-06T06:51:43.565Z,8.72
2022-10-06T06:54:11.750Z,8.79
2022-10-06T06:56:39.526Z,8.86
2022-10-06T06:59:09.814Z,8.92
2022-10-06T07:01:42.612Z,8.96
2022-10-06T07:04:11.812Z,9.05
2022-10-06T07:06:41.209Z,9.15
2022-10-06T07:09:10.125Z,9.22
2022-10-06T07:11:39.793Z,9.31
2022-10-06T07:14:10.956Z,9.38
2022-10-06T07:16:38.383Z,9.49
2022-10-06T07:19:07.046Z,9.59
2022-10-06T07:21:34.359Z,9.69
2022-10-06T07:24:02.828Z,9.80
2022-10-06T07:26:30.008Z,9.92
2022-10-06T07:28:58.947Z,10.04
2022-10-06T07:31:29.633Z,10.15
2022-10-06T07:33:56.814Z,10.25
2022-10-06T07:36:24.181Z,10.35
2022-10-06T07:38:51.351Z,10.46
2022-10-06T07:41:20.495Z,10.56
2022-10-06T07:43:58.044Z,10.70
2022-10-06T07:46:25.798Z,10.81
2022-10-06T07:48:53.516Z,10.92
2022-10-06T07:51:21.198Z,11.03
2022-10-06T07:53:48.982Z,11.16
2022-10-06T07:56:18.224Z,11.27
2022-10-06T07:58:47.163Z,11.35
2022-10-06T08:01:25.997Z,11.46
2022-10-06T08:03:53.656Z,11.57
2022-10-06T08:06:21.972Z,11.70
2022-10-06T08:08:52.846Z,11.83
2022-10-06T08:11:21.721Z,11.94
2022-10-06T08:13:49.488Z,12.04
2022-10-06T08:16:21.448Z,12.17
2022-10-06T08:18:54.985Z,12.28
2022-10-06T08:21:30.915Z,12.39
2022-10-06T08:23:59.304Z,12.49
2022-10-06T08:26:31.618Z,12.55
2022-10-06T08:29:00.572Z,12.68
2022-10-06T08:31:29.286Z,12.76
2022-10-06T08:33:58.212Z,12.88
2022-10-06T08:36:31.281Z,12.97
2022-10-06T08:38:59.205Z,13.03
2022-10-06T08:41:49.227Z,13.19
2022-10-06T08:44:34.974Z,13.28
2022-10-06T08:47:12.604Z,13.38
2022-10-06T08:49:53.082Z,13.43
2022-10-06T08:53:35.634Z,13.58
2022-10-06T08:56:22.081Z,13.65
2022-10-06T08:58:58.822Z,13.79
2022-10-06T09:01:38.425Z,13.91
2022-10-06T09:04:06.811Z,14.01
2022-10-06T09:06:58.747Z,14.14
2022-10-06T09:09:55.419Z,14.26
2022-10-06T09:12:50.693Z,14.35
2022-10-06T09:15:55.524Z,14.43
2022-10-06T09:18:34.859Z,14.55
2022-10-06T09:21:23.922Z,14.65
2022-10-06T09:23:54.642Z,14.75
2022-10-06T09:26:33.955Z,14.86
2022-10-06T09:29:01.268Z,14.95
2022-10-06T09:31:44.861Z,15.06
2022-10-06T09:34:25.397Z,15.12
2022-10-06T09:37:08.808Z,15.24
2022-10-06T09:39:43.007Z,15.35
2022-10-06T09:42:10.293Z,15.43
2022-10-06T09:45:00.767Z,15.49
2022-10-06T09:47:30.669Z,15.57
2022-10-06T09:50:10.086Z,15.70
2022-10-06T09:52:37.588Z,15.78
2022-10-06T09:55:13.823Z,15.89
2022-10-06T09:57:54.909Z,15.98
2022-10-06T10:01:07.108Z,16.09
2022-10-06T10:04:19.902Z,16.22
2022-10-06T10:06:48.822Z,16.32
2022-10-06T10:09:26.356Z,16.42
2022-10-06T10:12:17.132Z,16.54
2022-10-06T10:14:44.301Z,16.64
2022-10-06T10:17:20.666Z,16.74
2022-10-06T10:19:55.690Z,16.85
2022-10-06T10:22:41.273Z,16.93
2022-10-06T10:25:35.127Z,17.01
2022-10-06T10:28:11.918Z,17.17
2022-10-06T10:31:00.248Z,17.25
2022-10-06T10:33:49.703Z,17.42
2022-10-06T10:36:38.713Z,17.54
2022-10-06T10:39:14.368Z,17.68
2022-10-06T10:41:52.903Z,17.83
2022-10-06T10:44:37.023Z,17.96
2022-10-06T10:47:44.397Z,18.47
2022-10-06T10:50:29.842Z,19.38
2022-10-06T10:53:26.194Z,21.06
2022-10-06T10:55:57.270Z,22.71
2022-10-06T10:58:44.526Z,24.45
2022-10-06T11:01:26.149Z,26.01
2022-10-06T11:07:04.903Z,28.41
2022-10-06T11:09:40.856Z,29.31
2022-10-06T11:12:53.856Z,30.21
2022-10-06T11:16:04.706Z,30.84
2022-10-06T11:18:38.214Z,31.39
2022-10-06T11:21:20.174Z,31.75
2022-10-06T11:24:34.413Z,32.03
2022-10-06T11:27:31.645Z,31.96
2022-10-06T11:30:11.572Z,32.02
2022-10-06T11:32:57.323Z,32.14
2022-10-06T11:35:28.736Z,32.33
2022-10-06T11:38:38.240Z,32.51
2022-10-06T11:41:33.430Z,32.49
2022-10-06T11:44:26.403Z,32.54
2022-10-06T11:47:04.282Z,32.38
2022-10-06T11:49:31.494Z,32.32
2022-10-06T11:52:08.837Z,32.40
2022-10-06T11:54:45.662Z,32.21
2022-10-06T11:57:29.625Z,32.24
2022-10-06T12:00:18.419Z,32.13
2022-10-06T12:02:47.118Z,31.96
2022-10-06T12:08:02.276Z,31.70
2022-10-06T12:10:29.397Z,31.48
2022-10-06T12:19:57.394Z,30.02
2022-10-06T12:22:38.702Z,29.69
2022-10-06T12:25:47.658Z,29.39
2022-10-06T12:28:29.704Z,29.23
2022-10-06T12:31:33.197Z,29.04
2022-10-06T12:34:00.785Z,28.89
2022-10-06T12:36:32.324Z,28.76
2022-10-06T12:39:20.334Z,28.67
2022-10-06T12:42:30.642Z,28.44
2022-10-06T12:45:01.231Z,28.34
2022-10-06T12:47:53.459Z,28.25
2022-10-06T12:50:27.190Z,28.29
2022-10-06T12:53:16.619Z,28.24
2022-10-06T12:55:50.288Z,28.16
2022-10-06T12:58:32.096Z,28.18
2022-10-06T13:01:14.374Z,28.13
2022-10-06T13:03:51.805Z,28.11
2022-10-06T13:06:28.614Z,28.04
2022-10-06T13:09:13.421Z,27.85
2022-10-06T13:11:40.813Z,27.68
2022-10-06T13:14:14.390Z,27.61
2022-10-06T13:16:49.447Z,27.53
2022-10-06T13:19:25.913Z,27.51
2022-10-06T13:21:55.945Z,27.49
2022-10-06T13:24:31.358Z,27.48
2022-10-06T13:27:06.101Z,27.42
2022-10-06T13:29:35.977Z,27.42
2022-10-06T13:32:04.282Z,27.46
2022-10-06T13:34:38.750Z,27.44
2022-10-06T13:39:40.941Z,27.43
2022-10-06T13:42:19.697Z,27.31
2022-10-06T13:45:01.766Z,27.19
2022-10-06T13:47:30.393Z,27.00
2022-10-06T13:50:07.589Z,26.57
2022-10-06T13:52:45.931Z,26.32
2022-10-06T13:55:28.714Z,26.16
2022-10-06T13:58:00.071Z,26.12
2022-10-06T14:00:46.681Z,26.17
2022-10-06T14:03:30.764Z,26.34
2022-10-06T14:06:19.115Z,26.36
2022-10-06T14:08:54.840Z,26.39
2022-10-06T14:11:29.118Z,26.45
2022-10-06T14:14:04.519Z,26.50
2022-10-06T14:16:32.205Z,26.56
2022-10-06T14:19:03.622Z,26.61
2022-10-06T14:21:39.576Z,26.68
2022-10-06T14:24:15.987Z,26.74
2022-10-06T14:26:49.058Z,26.79
2022-10-06T14:29:18.224Z,26.77
2022-10-06T14:31:46.786Z,26.76
2022-10-06T14:34:17.436Z,26.66
2022-10-06T14:36:48.358Z,26.62
2022-10-06T14:39:16.522Z,26.65
2022-10-06T14:41:43.934Z,26.61
2022-10-06T14:44:12.095Z,26.56
2022-10-06T14:46:41.509Z,26.40
2022-10-06T14:49:12.072Z,26.21
2022-10-06T14:51:41.575Z,26.11
2022-10-06T14:54:09.759Z,26.04
2022-10-06T14:56:38.728Z,25.96
2022-10-06T14:59:09.983Z,25.88
2022-10-06T15:01:39.202Z,25.75
2022-10-06T15:04:19.401Z,25.46
2022-10-06T15:06:47.782Z,25.02
2022-10-06T15:09:14.948Z,24.59
2022-10-06T15:11:42.717Z,24.17
2022-10-06T15:14:10.503Z,23.78
2022-10-06T15:16:39.383Z,23.37
2022-10-06T15:19:07.517Z,23.00
2022-10-06T15:21:35.415Z,22.70
2022-10-06T15:24:04.551Z,22.44
2022-10-06T15:26:32.537Z,22.18
2022-10-06T15:28:59.734Z,21.92
2022-10-06T15:31:30.485Z,21.71
2022-10-06T15:33:58.677Z,21.47
2022-10-06T15:36:26.211Z,21.28
2022-10-06T15:38:54.969Z,21.15
2022-10-06T15:41:22.762Z,20.99
2022-10-06T15:43:50.317Z,20.81
2022-10-06T15:46:17.651Z,20.58
2022-10-06T15:48:45.141Z,20.44
2022-10-06T15:51:12.359Z,20.27
2022-10-06T15:53:39.717Z,20.13
2022-10-06T15:56:07.032Z,19.98
2022-10-06T15:58:34.382Z,19.84
2022-10-06T16:01:01.855Z,19.68
2022-10-06T16:03:29.197Z,19.56
2022-10-06T16:05:56.382Z,19.44
2022-10-06T16:08:26.088Z,19.31
2022-10-06T16:10:53.293Z,19.18
2022-10-06T16:13:20.475Z,19.04
2022-10-06T16:15:57.396Z,18.89
2022-10-06T16:18:24.967Z,18.76
2022-10-06T16:20:54.312Z,18.69
2022-10-06T16:23:22.706Z,18.59
2022-10-06T16:25:50.077Z,18.47
2022-10-06T16:28:17.311Z,18.38
2022-10-06T16:30:54.146Z,18.28
2022-10-06T16:33:21.515Z,18.18
2022-10-06T16:35:59.297Z,18.09
2022-10-06T16:38:26.837Z,18.02
2022-10-06T16:41:01.912Z,17.92
2022-10-06T16:43:39.684Z,17.83
2022-10-06T16:46:23.314Z,17.74
2022-10-06T16:48:53.940Z,17.65
2022-10-06T16:51:30.993Z,17.54
2022-10-06T16:54:04.833Z,17.44
2022-10-06T16:56:35.364Z,17.35
2022-10-06T16:59:06.524Z,17.25
2022-10-06T17:01:36.914Z,17.17
2022-10-06T17:04:13.406Z,17.07
2022-10-06T17:06:44.466Z,17.02
2022-10-06T17:09:19.839Z,16.93
2022-10-06T17:11:51.624Z,16.85
2022-10-06T17:14:20.549Z,16.81
2022-10-06T17:16:51.226Z,16.70
2022-10-06T17:19:21.894Z,16.64
2022-10-06T17:21:54.156Z,16.53
2022-10-06T17:24:27.408Z,16.49
2022-10-06T17:26:54.831Z,16.43
2022-10-06T17:29:25.386Z,16.39
2022-10-06T17:31:55.577Z,16.33
2022-10-06T17:34:26.486Z,16.28
2022-10-06T17:36:55.316Z,16.17
2022-10-06T17:39:23.849Z,16.15
2022-10-06T17:41:53.136Z,16.06
2022-10-06T17:44:24.207Z,16.01
2022-10-06T17:46:58.676Z,15.93
2022-10-06T17:49:26.783Z,15.85
2022-10-06T17:51:55.738Z,15.78
2022-10-06T17:54:25.863Z,15.74
2022-10-06T17:56:58.042Z,15.70
2022-10-06T17:59:29.653Z,15.65
2022-10-06T18:02:00.762Z,15.56
2022-10-06T18:04:29.130Z,15.51
2022-10-06T18:06:56.828Z,15.46
2022-10-06T18:09:24.356Z,15.40
2022-10-06T18:11:54.487Z,15.33
2022-10-06T18:14:25.873Z,15.26
2022-10-06T18:17:00.253Z,15.21
2022-10-06T18:19:36.245Z,15.14
2022-10-06T18:22:09.691Z,15.10
2022-10-06T18:24:37.927Z,15.02
2022-10-06T18:27:06.139Z,14.97
2022-10-06T18:29:36.965Z,14.93
2022-10-06T18:37:40.967Z,14.74
2022-10-06T18:40:09.428Z,14.71
2022-10-06T18:42:39.954Z,14.66
2022-10-06T18:45:08.994Z,14.61
2022-10-06T18:47:36.206Z,14.55
2022-10-06T18:50:03.593Z,14.50
2022-10-06T18:52:30.933Z,14.42
2022-10-06T18:54:58.261Z,14.37
2022-10-06T18:57:27.846Z,14.31
2022-10-06T18:59:55.341Z,14.25
2022-10-06T19:02:22.736Z,14.18
2022-10-06T19:04:50.023Z,14.16
2022-10-06T19:07:17.228Z,14.14
2022-10-06T19:09:46.764Z,14.08
2022-10-06T19:12:14.781Z,14.04
2022-10-06T19:14:43.388Z,14.00
2022-10-06T19:17:12.086Z,13.97
2022-10-06T19:19:40.154Z,13.92
2022-10-06T19:22:08.169Z,13.86
2022-10-06T19:24:38.989Z,13.81
2022-10-06T19:27:10.849Z,13.74
2022-10-06T19:29:43.999Z,13.71
2022-10-06T19:32:16.262Z,13.67
2022-10-06T19:34:44.610Z,13.64
2022-10-06T19:37:12.023Z,13.58
2022-10-06T19:39:43.792Z,13.54
2022-10-06T19:42:14.093Z,13.52
2022-10-06T19:44:43.246Z,13.48
2022-10-06T19:47:14.250Z,13.43
2022-10-06T19:49:43.048Z,13.35
2022-10-06T19:52:12.745Z,13.35
2022-10-06T19:54:40.491Z,13.33
2022-10-06T19:57:08.922Z,13.30
2022-10-06T19:59:36.193Z,13.26
2022-10-06T20:02:03.965Z,13.20
2022-10-06T20:04:31.324Z,13.15
2022-10-06T20:06:58.507Z,13.12
2022-10-06T20:09:25.773Z,13.10
2022-10-06T20:11:53.243Z,13.06
2022-10-06T20:14:23.527Z,13.03
2022-10-06T20:16:53.419Z,13.00
2022-10-06T20:19:21.705Z,12.94
2022-10-06T20:21:49.334Z,12.92
2022-10-06T20:24:20.650Z,12.90
2022-10-06T20:26:47.874Z,12.88
2022-10-06T20:29:22.513Z,12.85
2022-10-06T20:31:53.494Z,12.84
2022-10-06T20:34:25.768Z,12.80
2022-10-06T20:36:55.949Z,12.74
2022-10-06T20:39:23.935Z,12.71
2022-10-06T20:41:51.918Z,12.67
2022-10-06T20:44:20.143Z,12.63
2022-10-06T20:46:47.402Z,12.59
2022-10-06T20:49:15.801Z,12.59
2022-10-06T20:51:46.044Z,12.57
2022-10-06T20:54:19.268Z,12.53
2022-10-06T20:56:50.518Z,12.48
2022-10-06T20:59:20.158Z,12.48
2022-10-06T21:01:48.499Z,12.45
2022-10-06T21:04:15.751Z,12.43
2022-10-06T21:06:43.055Z,12.40
2022-10-06T21:09:16.753Z,12.37
2022-10-06T21:11:45.994Z,12.33
2022-10-06T21:14:15.150Z,12.31
2022-10-06T21:16:45.168Z,12.32
2022-10-06T21:19:18.126Z,12.30
2022-10-06T21:21:48.656Z,12.26
2022-10-06T21:24:16.035Z,12.20
2022-10-06T21:26:43.191Z,12.18
2022-10-06T21:29:11.713Z,12.16
2022-10-06T21:31:38.899Z,12.11
2022-10-06T21:34:06.118Z,12.12
2022-10-06T21:36:33.555Z,12.12
2022-10-06T21:39:02.050Z,12.10
2022-10-06T21:41:33.765Z,12.10
2022-10-06T21:44:13.127Z,12.08
2022-10-06T21:46:45.816Z,12.06
2022-10-06T21:49:19.770Z,12.02
2022-10-06T21:51:50.437Z,12.01
2022-10-06T21:54:17.707Z,11.96
2022-10-06T21:56:45.804Z,11.92
2022-10-06T21:59:13.573Z,11.88
2022-10-06T22:01:44.469Z,11.80
2022-10-06T22:04:13.715Z,11.76
2022-10-06T22:06:42.610Z,11.71
2022-10-06T22:09:15.209Z,11.68
2022-10-06T22:11:43.179Z,11.69
2022-10-06T22:14:17.188Z,11.75
2022-10-06T22:16:45.085Z,11.73
2022-10-06T22:19:15.209Z,11.70
2022-10-06T22:21:46.433Z,11.64
2022-10-06T22:24:20.260Z,11.59
2022-10-06T22:26:48.522Z,11.54
2022-10-06T22:29:18.305Z,11.50
2022-10-06T22:31:47.913Z,11.42
2022-10-06T22:34:19.066Z,11.41
2022-10-06T22:36:46.498Z,11.37
2022-10-06T22:39:13.802Z,11.34
2022-10-06T22:41:41.165Z,11.32
2022-10-06T22:44:08.469Z,11.28
2022-10-06T22:46:37.430Z,11.26
2022-10-06T22:49:05.478Z,11.21
2022-10-06T22:51:32.996Z,11.20
2022-10-06T22:54:01.159Z,11.13
2022-10-06T22:56:31.977Z,11.12
2022-10-06T22:59:00.423Z,11.07
2022-10-06T23:01:29.892Z,11.03
2022-10-06T23:03:57.993Z,10.99
2022-10-06T23:06:26.168Z,10.95
2022-10-06T23:08:53.682Z,10.94
2022-10-06T23:11:22.220Z,10.92
2022-10-06T23:13:50.377Z,10.93
2022-10-06T23:16:19.726Z,10.90
2022-10-06T23:18:48.006Z,10.85
2022-10-06T23:21:22.615Z,10.81
2022-10-06T23:23:56.113Z,10.74
2022-10-06T23:26:24.679Z,10.71
2022-10-06T23:28:58.738Z,10.69
2022-10-06T23:31:27.967Z,10.65
2022-10-06T23:33:55.878Z,10.62
2022-10-06T23:36:23.479Z,10.60
2022-10-06T23:38:50.860Z,10.55
2022-10-06T23:41:18.479Z,10.53
2022-10-06T23:43:46.092Z,10.50
2022-10-06T23:46:14.299Z,10.50
2022-10-06T23:48:41.983Z,10.48
2022-10-06T23:51:13.577Z,10.46
2022-10-06T23:53:41.583Z,10.40
2022-10-06T23:56:10.212Z,10.38
2022-10-06T23:58:37.763Z,10.34
